createdAt,value
2022-07-28T00:00:11.542Z,100032.34
2022-07-28T00:02:38.667Z,100032.59
2022-07-28T00:05:06.644Z,100035.53
2022-07-28T00:07:34.561Z,100037.09
2022-07-28T00:10:01.582Z,100037.38
2022-07-28T00:12:30.639Z,100036.56
2022-07-28T00:14:57.704Z,100032.34
2022-07-28T00:17:25.317Z,100030.25
2022-07-28T00:19:53.008Z,100034.19
2022-07-28T00:22:20.264Z,100027.59
2022-07-28T00:24:47.240Z,100032.06
2022-07-28T00:27:19.142Z,100024.44
2022-07-28T00:29:50.300Z,100018.13
2022-07-28T00:32:19.350Z,100018.66
2022-07-28T00:34:47.082Z,100024.69
2022-07-28T00:37:14.822Z,100032.31
2022-07-28T00:39:43.095Z,100022.31
2022-07-28T00:42:10.607Z,100023.88
2022-07-28T00:44:41.892Z,100018.63
2022-07-28T00:47:09.490Z,100014.41
2022-07-28T00:49:36.563Z,100023.91
2022-07-28T00:52:04.762Z,100019.69
2022-07-28T00:54:33.510Z,100015.44
2022-07-28T00:57:00.494Z,100016.75
2022-07-28T00:59:27.446Z,100005.44
2022-07-28T01:01:56.007Z,100011.72
2022-07-28T01:04:24.686Z,100014.63
2022-07-28T01:07:01.664Z,100006.94
2022-07-28T01:09:50.258Z,100010.03
2022-07-28T01:12:32.944Z,100009.00
2022-07-28T01:15:18.588Z,100009.03
2022-07-28T01:17:54.340Z,99999.56
2022-07-28T01:20:34.233Z,100008.78
2022-07-28T01:23:13.088Z,100010.88
2022-07-28T01:26:35.634Z,100000.31
2022-07-28T01:29:40.638Z,99996.91
2022-07-28T01:32:20.176Z,100003.16
2022-07-28T01:34:57.284Z,99997.13
2022-07-28T01:37:28.768Z,99999.75
2022-07-28T01:40:03.302Z,100010.78
2022-07-28T01:42:37.257Z,100000.78
2022-07-28T01:45:07.352Z,100006.84
2022-07-28T01:47:35.396Z,100013.69
2022-07-28T01:50:06.641Z,100011.84
2022-07-28T01:52:36.890Z,100017.09
2022-07-28T01:55:04.501Z,100009.47
2022-07-28T01:57:33.179Z,100012.09
2022-07-28T02:00:01.610Z,100010.75
2022-07-28T02:02:32.981Z,100008.63
2022-07-28T02:05:01.111Z,100007.56
2022-07-28T02:07:31.957Z,100008.38
2022-07-28T02:10:01.360Z,100002.59
2022-07-28T02:12:29.779Z,99997.84
2022-07-28T02:15:17.872Z,99999.97
2022-07-28T02:17:47.403Z,99996.00
2022-07-28T02:20:16.363Z,99996.00
2022-07-28T02:22:44.557Z,100000.47
2022-07-28T02:25:19.620Z,99992.34
2022-07-28T02:27:58.939Z,99985.22
2022-07-28T02:30:32.699Z,99983.91
2022-07-28T02:33:58.388Z,99989.66
2022-07-28T02:36:26.401Z,99994.38
2022-07-28T02:38:55.334Z,99993.63
2022-07-28T02:41:28.359Z,99997.28
2022-07-28T02:44:12.035Z,99994.13
2022-07-28T02:46:44.272Z,99998.88
2022-07-28T02:49:23.981Z,99999.91
2022-07-28T02:51:53.538Z,99997.34
2022-07-28T02:54:21.611Z,99997.59
2022-07-28T02:56:53.325Z,100002.06
2022-07-28T02:59:23.470Z,100008.63
2022-07-28T03:01:51.769Z,100003.59
2022-07-28T03:04:42.399Z,100015.16
2022-07-28T03:07:11.090Z,100021.19
2022-07-28T03:09:40.900Z,100022.22
2022-07-28T03:12:09.105Z,100018.56
2022-07-28T03:14:36.551Z,100014.34
2022-07-28T03:17:04.048Z,100018.31
2022-07-28T03:19:31.292Z,100032.00
2022-07-28T03:21:58.739Z,100024.66
2022-07-28T03:24:32.589Z,100028.09
2022-07-28T03:27:27.676Z,100022.50
2022-07-28T03:30:04.024Z,100030.41
2022-07-28T03:32:35.053Z,100033.59
2022-07-28T03:35:02.358Z,100034.66
2022-07-28T03:37:42.317Z,100034.66
2022-07-28T03:40:12.300Z,100034.72
2022-07-28T03:42:41.085Z,100035.53
2022-07-28T03:45:08.832Z,100035.78
2022-07-28T03:47:36.067Z,100040.03
2022-07-28T03:50:03.080Z,100039.47
2022-07-28T03:52:30.895Z,100045.28
2022-07-28T03:54:58.254Z,100049.50
2022-07-28T03:57:26.031Z,100047.66
2022-07-28T03:59:53.078Z,100044.78
2022-07-28T04:02:20.356Z,100044.28
2022-07-28T04:04:47.510Z,100041.41
2022-07-28T04:07:19.818Z,100045.38
2022-07-28T04:09:47.511Z,100045.94
2022-07-28T04:12:14.440Z,100050.69
2022-07-28T04:14:42.438Z,100054.13
2022-07-28T04:17:09.959Z,100057.56
2022-07-28T04:19:37.018Z,100058.13
2022-07-28T04:22:03.964Z,100063.38
2022-07-28T04:24:31.241Z,100063.13
2022-07-28T04:26:58.628Z,100064.44
2022-07-28T04:29:27.270Z,100062.34
2022-07-28T04:31:54.746Z,100063.94
2022-07-28T04:34:21.839Z,100065.28
2022-07-28T04:36:49.070Z,100069.25
2022-07-28T04:39:16.354Z,100071.63
2022-07-28T04:41:47.228Z,100059.81
2022-07-28T04:44:18.671Z,100071.13
2022-07-28T04:46:47.037Z,100076.66
2022-07-28T04:49:14.133Z,100083.78
2022-07-28T04:51:42.147Z,100086.41
2022-07-28T04:54:11.801Z,100084.84
2022-07-28T04:56:38.880Z,100085.91
2022-07-28T04:59:06.247Z,100086.69
2022-07-28T05:01:33.223Z,100081.16
2022-07-28T05:04:00.339Z,100080.59
2022-07-28T05:06:27.633Z,100080.59
2022-07-28T05:08:54.602Z,100081.38
2022-07-28T05:11:21.780Z,100080.84
2022-07-28T05:13:51.171Z,100081.38
2022-07-28T05:16:19.071Z,100086.88
2022-07-28T05:18:46.155Z,100083.47
2022-07-28T05:21:13.367Z,100089.25
2022-07-28T05:23:47.743Z,100087.38
2022-07-28T05:26:15.119Z,100093.44
2022-07-28T05:28:42.185Z,100097.94
2022-07-28T05:31:10.517Z,100086.06
2022-07-28T05:33:38.405Z,100087.38
2022-07-28T05:36:05.888Z,100088.41
2022-07-28T05:38:34.015Z,100099.88
2022-07-28T05:41:01.350Z,100095.06
2022-07-28T05:43:28.423Z,100101.63
2022-07-28T05:45:55.480Z,100098.53
2022-07-28T05:48:23.007Z,100104.78
2022-07-28T05:50:51.332Z,100113.56
2022-07-28T05:53:19.555Z,100115.44
2022-07-28T05:56:00.071Z,100124.63
2022-07-28T05:58:29.940Z,100131.28
2022-07-28T06:01:01.930Z,100122.78
2022-07-28T06:03:32.228Z,100128.78
2022-07-28T06:06:14.914Z,100135.41
2022-07-28T06:08:44.252Z,100143.34
2022-07-28T06:11:22.087Z,100130.97
2022-07-28T06:13:51.472Z,100135.00
2022-07-28T06:16:20.888Z,100134.06
2022-07-28T06:18:48.262Z,100140.25
2022-07-28T06:21:15.289Z,100135.41
2022-07-28T06:23:42.759Z,100134.56
2022-07-28T06:26:09.739Z,100129.38
2022-07-28T06:28:37.125Z,100132.97
2022-07-28T06:31:04.560Z,100138.50
2022-07-28T06:33:31.520Z,100148.75
2022-07-28T06:35:58.544Z,100140.69
2022-07-28T06:38:25.910Z,100142.56
2022-07-28T06:40:52.951Z,100138.03
2022-07-28T06:43:20.059Z,100146.03
2022-07-28T06:45:47.680Z,100147.47
2022-07-28T06:48:15.138Z,100155.59
2022-07-28T06:50:43.175Z,100154.94
2022-07-28T06:53:11.032Z,100155.88
2022-07-28T06:55:38.328Z,100162.03
2022-07-28T06:58:08.333Z,100171.63
2022-07-28T07:00:37.866Z,100165.19
2022-07-28T07:03:09.583Z,100164.97
2022-07-28T07:05:38.863Z,100166.41
2022-07-28T07:08:06.751Z,100175.53
2022-07-28T07:10:35.685Z,100170.09
2022-07-28T07:13:03.463Z,100170.44
2022-07-28T07:15:30.696Z,100170.00
2022-07-28T07:18:00.124Z,100156.69
2022-07-28T07:20:28.339Z,100163.81
2022-07-28T07:22:58.002Z,100152.28
2022-07-28T07:25:24.958Z,100154.94
2022-07-28T07:27:52.604Z,100154.56
2022-07-28T07:30:20.439Z,100146.84
2022-07-28T07:32:47.566Z,100150.13
2022-07-28T07:35:16.219Z,100139.41
2022-07-28T07:37:43.357Z,100144.91
2022-07-28T07:40:10.891Z,100138.38
2022-07-28T07:42:41.388Z,100140.84
2022-07-28T07:45:09.036Z,100138.41
2022-07-28T07:47:36.459Z,100129.69
2022-07-28T07:50:07.051Z,100127.94
2022-07-28T07:52:35.525Z,100134.41
2022-07-28T07:55:05.760Z,100124.56
2022-07-28T07:57:33.095Z,100124.81
2022-07-28T08:00:00.268Z,100120.44
2022-07-28T08:02:29.880Z,100141.06
2022-07-28T08:05:00.665Z,100140.53
2022-07-28T08:07:28.786Z,100132.03
2022-07-28T08:09:59.233Z,100142.25
2022-07-28T08:12:26.458Z,100140.63
2022-07-28T08:14:55.083Z,100142.19
2022-07-28T08:17:25.943Z,100130.94
2022-07-28T08:19:53.818Z,100139.94
2022-07-28T08:22:20.804Z,100134.66
2022-07-28T08:24:48.207Z,100142.97
2022-07-28T08:27:15.199Z,100147.56
2022-07-28T08:32:33.544Z,100138.44
2022-07-28T08:35:30.449Z,100145.41
2022-07-28T08:37:48.718Z,100134.19
2022-07-28T08:40:18.631Z,100136.88
2022-07-28T08:43:28.705Z,100131.88
2022-07-28T08:46:06.626Z,100141.63
2022-07-28T08:48:35.990Z,100137.53
2022-07-28T08:51:09.753Z,100144.06
2022-07-28T08:53:39.492Z,100139.84
2022-07-28T08:56:08.476Z,100140.22
2022-07-28T08:58:37.900Z,100141.19
2022-07-28T09:01:18.657Z,100132.91
2022-07-28T09:03:46.937Z,100131.25
2022-07-28T09:06:14.463Z,100138.34
2022-07-28T09:08:43.794Z,100131.47
2022-07-28T09:11:10.834Z,100131.50
2022-07-28T09:13:39.719Z,100129.84
2022-07-28T09:16:07.482Z,100127.66
2022-07-28T09:18:34.859Z,100130.41
2022-07-28T09:21:01.796Z,100129.09
2022-07-28T09:23:46.903Z,100122.28
2022-07-28T09:26:14.848Z,100127.25
2022-07-28T09:29:08.725Z,100122.34
2022-07-28T09:31:55.586Z,100112.09
2022-07-28T09:34:26.165Z,100109.13
2022-07-28T09:36:53.450Z,100112.63
2022-07-28T09:39:35.042Z,100118.19
2022-07-28T09:42:02.907Z,100116.97
2022-07-28T09:44:30.008Z,100116.34
2022-07-28T09:46:57.652Z,100107.53
2022-07-28T09:49:45.097Z,100112.75
2022-07-28T09:52:12.152Z,100101.25
2022-07-28T09:54:41.195Z,100098.88
2022-07-28T09:57:11.981Z,100097.75
2022-07-28T09:59:43.018Z,100088.16
2022-07-28T10:02:13.824Z,100080.84
2022-07-28T10:04:44.561Z,100082.63
2022-07-28T10:07:17.282Z,100083.69
2022-07-28T10:10:02.283Z,100083.22
2022-07-28T10:12:32.540Z,100080.34
2022-07-28T10:15:39.025Z,100086.19
2022-07-28T10:18:13.770Z,100077.06
2022-07-28T10:20:41.504Z,100074.06
2022-07-28T10:23:13.678Z,100066.88
2022-07-28T10:25:44.383Z,100067.53
2022-07-28T10:28:16.487Z,100060.28
2022-07-28T10:30:44.176Z,100056.47
2022-07-28T10:33:47.131Z,100063.25
2022-07-28T10:36:17.786Z,100060.25
2022-07-28T10:38:44.958Z,100060.69
2022-07-28T10:41:17.706Z,100051.28
2022-07-28T10:43:46.541Z,100058.34
2022-07-28T10:46:17.128Z,100048.91
2022-07-28T10:48:44.579Z,100051.72
2022-07-28T10:51:13.917Z,100046.13
2022-07-28T10:53:47.528Z,100041.03
2022-07-28T10:56:24.500Z,100043.31
2022-07-28T10:59:10.111Z,100033.50
2022-07-28T11:01:50.154Z,100041.00
2022-07-28T11:04:55.867Z,100032.63
2022-07-28T11:07:22.836Z,100031.97
2022-07-28T11:09:52.509Z,100031.53
2022-07-28T11:12:46.527Z,100030.72
2022-07-28T11:15:34.949Z,100036.63
2022-07-28T11:18:20.138Z,100028.09
2022-07-28T11:20:55.416Z,100031.22
2022-07-28T11:23:37.682Z,100030.94
2022-07-28T11:26:23.465Z,100030.94
2022-07-28T11:29:11.025Z,100041.63
2022-07-28T11:31:47.260Z,100031.25
2022-07-28T11:34:19.549Z,100028.34
2022-07-28T11:37:02.562Z,100034.47
2022-07-28T11:39:41.253Z,100024.13
2022-07-28T11:42:31.295Z,100029.59
2022-07-28T11:45:18.464Z,100023.47
2022-07-28T11:47:46.227Z,100031.78
2022-07-28T11:50:14.683Z,100027.13
2022-07-28T11:52:53.992Z,100027.03
2022-07-28T11:55:21.661Z,100026.81
2022-07-28T11:58:27.713Z,100024.56
2022-07-28T12:01:21.006Z,100024.13
2022-07-28T12:03:55.332Z,100025.09
2022-07-28T12:06:36.709Z,100023.94
2022-07-28T12:09:06.244Z,100022.03
2022-07-28T12:11:35.846Z,100010.63
2022-07-28T12:14:08.237Z,100009.66
2022-07-28T12:16:38.385Z,100010.91
2022-07-28T12:19:10.602Z,100002.13
2022-07-28T12:21:47.511Z,99996.25
2022-07-28T12:24:31.808Z,100000.16
2022-07-28T12:27:00.754Z,100005.38
2022-07-28T12:29:32.213Z,100004.69
2022-07-28T12:32:10.146Z,100002.66
2022-07-28T12:34:40.946Z,99996.41
2022-07-28T12:37:10.233Z,100000.06
2022-07-28T12:39:42.096Z,99989.13
2022-07-28T12:42:12.015Z,99989.28
2022-07-28T12:45:06.390Z,99987.34
2022-07-28T12:47:34.705Z,99989.00
2022-07-28T12:50:14.366Z,99986.28
2022-07-28T12:52:51.277Z,99987.84
2022-07-28T12:55:23.992Z,99981.44
2022-07-28T12:57:53.043Z,99983.66
2022-07-28T13:00:25.660Z,99976.16
2022-07-28T13:02:56.508Z,99982.06
2022-07-28T13:06:02.282Z,99975.13
2022-07-28T13:08:46.643Z,99973.56
2022-07-28T13:11:42.891Z,99975.38
2022-07-28T13:14:04.605Z,99974.59
2022-07-28T13:16:32.581Z,99970.91
2022-07-28T13:19:04.616Z,99972.16
2022-07-28T13:21:57.356Z,99974.03
2022-07-28T13:24:26.288Z,99974.19
2022-07-28T13:26:53.617Z,99963.25
2022-07-28T13:29:45.310Z,99960.72
2022-07-28T13:32:14.348Z,99971.25
2022-07-28T13:34:42.510Z,99962.69
2022-07-28T13:37:09.873Z,99968.22
2022-07-28T13:39:37.764Z,99960.13
2022-07-28T13:42:06.801Z,99944.75
2022-07-28T13:44:39.243Z,99947.88
2022-07-28T13:47:07.878Z,99947.22
2022-07-28T13:49:37.896Z,99943.44
2022-07-28T13:52:13.237Z,99939.59
2022-07-28T13:54:40.648Z,99940.72
2022-07-28T13:57:08.231Z,99944.50
2022-07-28T13:59:37.767Z,99943.25
2022-07-28T14:02:15.625Z,99947.38
2022-07-28T14:04:46.037Z,99939.00
2022-07-28T14:07:21.055Z,99931.78
2022-07-28T14:09:50.504Z,99936.06
2022-07-28T14:12:18.194Z,99934.16
2022-07-28T14:14:48.207Z,99932.25
2022-07-28T14:20:12.622Z,99930.72
2022-07-28T14:22:40.261Z,99923.91
2022-07-28T14:25:07.725Z,99934.72
2022-07-28T14:27:35.177Z,99923.38
2022-07-28T14:30:04.101Z,99928.41
2022-07-28T14:32:36.019Z,99924.47
2022-07-28T14:35:03.883Z,99927.16
2022-07-28T14:37:55.095Z,99916.81
2022-07-28T14:40:21.685Z,99919.69
2022-07-28T14:42:48.764Z,99912.47
2022-07-28T14:45:15.870Z,99922.47
2022-07-28T14:47:44.877Z,99911.91
2022-07-28T14:50:12.927Z,99915.84
2022-07-28T14:52:39.918Z,99903.03
2022-07-28T14:55:07.837Z,99913.84
2022-07-28T14:57:50.246Z,99904.41
2022-07-28T15:00:30.697Z,99914.31
2022-07-28T15:02:58.331Z,99914.72
2022-07-28T15:05:25.914Z,99908.63
2022-07-28T15:07:54.339Z,99914.31
2022-07-28T15:10:23.932Z,99906.28
2022-07-28T15:12:52.047Z,99906.72
2022-07-28T15:15:21.249Z,99903.38
2022-07-28T15:17:49.069Z,99895.06
2022-07-28T15:20:16.583Z,99892.03
2022-07-28T15:22:44.132Z,99889.50
2022-07-28T15:25:11.115Z,99892.97
2022-07-28T15:27:42.916Z,99897.53
2022-07-28T15:30:13.285Z,99895.31
2022-07-28T15:32:56.013Z,99885.16
2022-07-28T15:35:59.363Z,99892.94
2022-07-28T15:38:18.050Z,99889.16
2022-07-28T15:40:49.920Z,99881.59
2022-07-28T15:43:19.491Z,99883.03
2022-07-28T15:45:51.264Z,99880.88
2022-07-28T15:48:18.250Z,99880.09
2022-07-28T15:50:48.546Z,99881.56
2022-07-28T15:53:16.828Z,99878.44
2022-07-28T15:55:48.969Z,99874.84
2022-07-28T15:58:18.066Z,99869.84
2022-07-28T16:00:46.037Z,99871.41
2022-07-28T16:03:13.319Z,99881.75
2022-07-28T16:05:41.248Z,99878.31
2022-07-28T16:08:08.202Z,99876.41
2022-07-28T16:10:35.505Z,99869.97
2022-07-28T16:13:02.766Z,99869.19
2022-07-28T16:15:29.744Z,99874.84
2022-07-28T16:17:58.003Z,99864.84
2022-07-28T16:20:25.379Z,99866.75
2022-07-28T16:22:52.582Z,99860.47
2022-07-28T16:25:20.761Z,99865.03
2022-07-28T16:27:48.508Z,99855.03
2022-07-28T16:30:17.518Z,99865.69
2022-07-28T16:32:45.500Z,99850.34
2022-07-28T16:35:15.623Z,99851.47
2022-07-28T16:37:43.099Z,99848.13
2022-07-28T16:40:11.673Z,99854.91
2022-07-28T16:42:39.104Z,99856.34
2022-07-28T16:45:06.795Z,99844.78
2022-07-28T16:47:33.859Z,99852.78
2022-07-28T16:50:01.119Z,99850.13
2022-07-28T16:52:30.227Z,99848.53
2022-07-28T16:54:57.290Z,99849.22
2022-07-28T16:57:24.697Z,99840.78
2022-07-28T16:59:51.890Z,99846.75
2022-07-28T17:02:19.654Z,99851.16
2022-07-28T17:04:47.809Z,99849.59
2022-07-28T17:07:15.224Z,99852.75
2022-07-28T17:09:42.367Z,99853.41
2022-07-28T17:12:12.095Z,99848.69
2022-07-28T17:14:39.408Z,99852.81
2022-07-28T17:17:06.531Z,99854.22
2022-07-28T17:19:34.757Z,99854.56
2022-07-28T17:22:05.304Z,99862.44
2022-07-28T17:24:32.472Z,99853.63
2022-07-28T17:29:46.988Z,99857.19
2022-07-28T17:32:14.389Z,99859.38
2022-07-28T17:34:41.634Z,99856.25
2022-07-28T17:37:08.703Z,99857.69
2022-07-28T17:39:36.672Z,99859.13
2022-07-28T17:42:04.107Z,99861.19
2022-07-28T17:44:31.499Z,99861.41
2022-07-28T17:47:01.554Z,99863.16
2022-07-28T17:49:30.506Z,99858.03
2022-07-28T17:51:58.191Z,99862.09
2022-07-28T17:54:27.660Z,99871.06
2022-07-28T17:56:57.448Z,99871.38
2022-07-28T17:59:24.648Z,99875.81
2022-07-28T18:02:01.618Z,99873.00
2022-07-28T18:04:28.833Z,99873.66
2022-07-28T18:06:56.103Z,99868.53
2022-07-28T18:09:23.934Z,99874.00
2022-07-28T18:11:56.005Z,99871.53
2022-07-28T18:14:27.855Z,99871.09
2022-07-28T18:16:55.480Z,99872.06
2022-07-28T18:19:22.725Z,99869.91
2022-07-28T18:21:52.007Z,99873.50
2022-07-28T18:24:22.099Z,99871.66
2022-07-28T18:26:50.801Z,99878.13
2022-07-28T18:29:19.312Z,99883.63
2022-07-28T18:31:47.170Z,99887.53
2022-07-28T18:34:15.874Z,99883.50
2022-07-28T18:36:44.486Z,99885.22
2022-07-28T18:39:14.870Z,99891.03
2022-07-28T18:41:47.334Z,99886.94
2022-07-28T18:44:18.574Z,99888.66
2022-07-28T18:46:46.775Z,99889.47
2022-07-28T18:49:14.121Z,99893.41
2022-07-28T18:51:44.023Z,99893.06
2022-07-28T18:54:21.487Z,99899.31
2022-07-28T18:56:53.954Z,99897.91
2022-07-28T18:59:21.763Z,99899.94
2022-07-28T19:01:49.849Z,99909.63
2022-07-28T19:04:17.434Z,99910.06
2022-07-28T19:06:44.994Z,99907.09
2022-07-28T19:09:12.045Z,99910.22
2022-07-28T19:11:45.329Z,99903.97
2022-07-28T19:14:14.958Z,99909.59
2022-07-28T19:16:42.462Z,99905.97
2022-07-28T19:19:09.728Z,99908.94
2022-07-28T19:21:36.911Z,99905.81
2022-07-28T19:24:04.287Z,99908.31
2022-07-28T19:26:31.356Z,99903.28
2022-07-28T19:29:08.596Z,99912.66
2022-07-28T19:31:35.763Z,99906.25
2022-07-28T19:34:04.700Z,99913.59
2022-07-28T19:36:32.126Z,99910.47
2022-07-28T19:38:59.109Z,99920.13
2022-07-28T19:41:26.434Z,99918.09
2022-07-28T19:43:56.227Z,99920.38
2022-07-28T19:46:24.947Z,99922.22
2022-07-28T19:49:01.361Z,99926.59
2022-07-28T19:51:28.573Z,99927.63
2022-07-28T19:53:59.609Z,99917.44
2022-07-28T19:56:31.397Z,99927.72
2022-07-28T19:58:59.208Z,99918.28
2022-07-28T20:01:27.604Z,99925.78
2022-07-28T20:04:03.629Z,99920.47
2022-07-28T20:06:32.856Z,99926.88
2022-07-28T20:09:07.032Z,99922.66
2022-07-28T20:11:37.059Z,99925.41
2022-07-28T20:14:05.782Z,99928.38
2022-07-28T20:16:34.034Z,99931.47
2022-07-28T20:19:04.132Z,99930.00
2022-07-28T20:21:51.319Z,99926.56
2022-07-28T20:24:21.754Z,99925.66
2022-07-28T20:26:48.658Z,99927.34
2022-07-28T20:29:22.592Z,99930.09
2022-07-28T20:31:49.768Z,99920.69
2022-07-28T20:34:21.721Z,99931.91
2022-07-28T20:36:50.888Z,99937.00
2022-07-28T20:39:43.363Z,99927.78
2022-07-28T20:42:07.928Z,99928.19
2022-07-28T20:44:35.287Z,99921.72
2022-07-28T20:47:04.507Z,99923.38
2022-07-28T20:49:31.966Z,99930.38
2022-07-28T20:51:59.124Z,99934.88
2022-07-28T20:54:27.743Z,99922.50
2022-07-28T20:56:55.155Z,99925.16
2022-07-28T20:59:27.473Z,99927.03
2022-07-28T21:01:55.631Z,99925.75
2022-07-28T21:04:24.473Z,99931.19
2022-07-28T21:06:54.313Z,99932.34
2022-07-28T21:09:23.905Z,99923.50
2022-07-28T21:11:50.893Z,99933.03
2022-07-28T21:14:26.970Z,99931.03
2022-07-28T21:16:54.964Z,99924.94
2022-07-28T21:19:22.079Z,99931.44
2022-07-28T21:21:49.004Z,99933.91
2022-07-28T21:24:16.634Z,99935.25
2022-07-28T21:26:43.966Z,99930.75
2022-07-28T21:29:12.513Z,99932.31
2022-07-28T21:32:03.732Z,99942.13
2022-07-28T21:34:28.708Z,99937.41
2022-07-28T21:36:56.255Z,99932.44
2022-07-28T21:39:23.308Z,99937.03
2022-07-28T21:41:50.266Z,99936.03
2022-07-28T21:44:18.040Z,99938.78
2022-07-28T21:46:45.838Z,99953.97
2022-07-28T21:49:13.215Z,99958.34
2022-07-28T21:51:49.629Z,99966.84
2022-07-28T21:54:16.997Z,99965.78
2022-07-28T21:56:44.416Z,99968.00
2022-07-28T21:59:11.418Z,99977.84
2022-07-28T22:01:39.639Z,99976.66
2022-07-28T22:04:06.998Z,99977.47
2022-07-28T22:06:33.900Z,99977.28
2022-07-28T22:09:00.857Z,99978.16
2022-07-28T22:11:28.070Z,99977.38
2022-07-28T22:13:55.394Z,99980.22
2022-07-28T22:16:22.940Z,99983.66
2022-07-28T22:18:50.322Z,99984.72
2022-07-28T22:21:17.372Z,99985.56
2022-07-28T22:23:45.473Z,99985.66
2022-07-28T22:26:12.861Z,99983.34
2022-07-28T22:28:41.322Z,99982.38
2022-07-28T22:31:10.104Z,99990.84
2022-07-28T22:33:38.871Z,99989.56
2022-07-28T22:36:07.189Z,99986.44
2022-07-28T22:38:34.148Z,99992.25
2022-07-28T22:41:01.431Z,99999.13
2022-07-28T22:43:28.437Z,99994.91
2022-07-28T22:45:55.552Z,99989.34
2022-07-28T22:48:22.940Z,99992.47
2022-07-28T22:50:49.975Z,99990.13
2022-07-28T22:53:16.871Z,99988.56
2022-07-28T22:58:28.633Z,99979.69
2022-07-28T23:00:58.336Z,99984.47
2022-07-28T23:03:26.144Z,99980.25
2022-07-28T23:06:00.721Z,99981.09
2022-07-28T23:08:28.211Z,99982.13
2022-07-28T23:10:55.719Z,99980.81
2022-07-28T23:13:24.415Z,99978.69
2022-07-28T23:15:51.829Z,99986.09
2022-07-28T23:18:18.826Z,99976.84
2022-07-28T23:20:46.005Z,99986.63
2022-07-28T23:23:14.960Z,99981.84
2022-07-28T23:25:50.327Z,99983.97
2022-07-28T23:28:24.146Z,99981.81
2022-07-28T23:30:52.032Z,99970.66
2022-07-28T23:33:54.473Z,99970.91
2022-07-28T23:36:16.868Z,99972.25
2022-07-28T23:38:53.479Z,99982.28
2022-07-28T23:41:20.803Z,99969.84
2022-07-28T23:43:47.878Z,99973.75
2022-07-28T23:46:14.948Z,99965.34
2022-07-28T23:48:43.533Z,99969.25
2022-07-28T23:51:10.586Z,99967.97
2022-07-28T23:53:39.151Z,99964.81
2022-07-28T23:56:07.138Z,99974.84
2022-07-28T23:58:35.013Z,99964.25
